Flight Track Log - Related Links

Times and Time Zones

All times are in EDT time to prevent confusion due to time zone crossing. See the N304LG flight status page for this flight to view local times or setup timezone preferences in your user account.

Time Position Orientation Groundspeed Altitude Reporting Facility
EDT Latitude Longitude Course Direction KTS MPH feet Rate Location/Type
Thu 11:44:37 AM 35.0469 -106.5992 342° North 138 159 6,000  Level Albuquerque Center
Thu 11:45:28 AM 35.0764 -106.6108 342° North 163 188 6,600 709 Climbing Albuquerque Center
Thu 11:46:27 AM 35.1144 -106.6469 322° Northwest 176 203 7,300 885 Climbing Albuquerque Center
Thu 11:47:30 AM 35.1144 -106.7075 270° West 177 204 8,400 992 Climbing Albuquerque Center
Thu 11:48:34 AM 35.0994 -106.7633 252° West 173 199 9,400 960 Climbing Albuquerque Center
Thu 11:49:35 AM 35.0808 -106.8306 251° West 174 200 10,400 878 Climbing Albuquerque Center
Thu 11:50:37 AM 35.0650 -106.8911 252° West 176 203 11,200 732 Climbing Albuquerque Center
Thu 11:51:38 AM 35.0528 -106.9417 254° West 183 211 11,900 836 Climbing Albuquerque Center
Thu 11:52:39 AM 35.0383 -107.0139 256° West 183 211 12,900 864 Climbing Albuquerque Center
Thu 11:53:43 AM 35.0375 -107.0811 269° West 197 227 13,700 816 Climbing Albuquerque Center
Thu 11:54:44 AM 35.0364 -107.1481 269° West 193 222 14,600 823 Climbing Albuquerque Center
Thu 11:55:47 AM 35.0353 -107.2122 269° West 195 224 15,400 829 Climbing Albuquerque Center
Thu 11:56:47 AM 35.0364 -107.2758 271° West 188 216 16,300 774 Climbing Albuquerque Center
Thu 11:57:51 AM 35.0378 -107.3394 272° West 187 215 17,000 726 Climbing Albuquerque Center
Thu 11:58:51 AM 35.0386 -107.4058 271° West 194 223 17,800 677 Climbing Albuquerque Center
Thu 11:59:55 AM 35.0425 -107.4839 274° West 193 222 18,400 624 Climbing Albuquerque Center
Thu 12:00:56 PM 35.0456 -107.5472 273° West 189 217 19,100 629 Climbing Albuquerque Center
Thu 12:01:59 PM 35.0486 -107.6081 274° West 184 212 19,700 634 Climbing Albuquerque Center
Thu 12:02:59 PM 35.0503 -107.6689 272° West 180 207 20,400 576 Climbing Albuquerque Center
Thu 12:04:04 PM 35.0517 -107.7297 272° West 180 207 20,900 286 Climbing Albuquerque Center
Thu 12:05:05 PM 35.0517 -107.7939 270° West 185 213 21,000 49 Climbing Albuquerque Center
Thu 12:06:06 PM 35.0553 -107.8769 273° West 200 230 21,000  Level Albuquerque Center
Thu 12:07:09 PM 35.0556 -107.9467 270° West 205 236 21,000  Level Albuquerque Center
Thu 12:08:10 PM 35.0544 -108.0178 269° West 208 239 21,000  Level Albuquerque Center
Thu 12:09:13 PM 35.0567 -108.0906 272° West 212 244 21,000  Level Albuquerque Center
Thu 12:10:14 PM 35.0567 -108.1708 270° West 214 246 21,000  Level Albuquerque Center
Thu 12:11:17 PM 35.0578 -108.2403 271° West 213 245 21,000  Level Albuquerque Center
Thu 12:12:18 PM 35.0625 -108.3225 274° West 217 250 21,000  Level Albuquerque Center
Thu 12:13:19 PM 35.0619 -108.3908 269° West 213 245 21,000  Level Albuquerque Center
Thu 12:14:22 PM 35.0633 -108.4739 271° West 217 250 21,000  Level Albuquerque Center
Thu 12:15:24 PM 35.0644 -108.5439 271° West 217 250 21,000  Level Albuquerque Center
Thu 12:16:27 PM 35.0658 -108.6269 271° West 218 251 21,000  Level Albuquerque Center
Thu 12:17:28 PM 35.0658 -108.6981 270° West 219 252 21,000  Level Albuquerque Center
Thu 12:18:29 PM 35.0661 -108.7686 270° West 217 250 21,000  Level Albuquerque Center
Thu 12:19:31 PM 35.0669 -108.8525 271° West 220 253 21,000  Level Albuquerque Center
Thu 12:20:35 PM 35.0681 -108.9228 271° West 218 251 21,000  Level Albuquerque Center
Thu 12:21:35 PM 35.0681 -109.0061 270° West 219 252 21,000  Level Albuquerque Center
Thu 12:22:38 PM 35.0683 -109.0783 270° West 220 253 21,000  Level Albuquerque Center
Thu 12:23:39 PM 35.0692 -109.1608 271° West 219 252 21,000  Level Albuquerque Center
Thu 12:24:41 PM 35.0686 -109.2331 269° West 220 253 21,000  Level Albuquerque Center
Thu 12:25:45 PM 35.0692 -109.3164 270° West 220 253 21,000  Level Albuquerque Center
Thu 12:26:45 PM 35.0694 -109.3892 270° West 222 255 21,000  Level Albuquerque Center
Thu 12:27:47 PM 35.0694 -109.4606 270° West 221 254 21,000  Level Albuquerque Center
Thu 12:28:48 PM 35.0697 -109.5450 270° West 222 255 21,000  Level Albuquerque Center
Thu 12:29:52 PM 35.0697 -109.6156 270° West 220 253 21,000  Level Albuquerque Center
Thu 12:30:52 PM 35.0692 -109.6986 270° West 219 252 21,000  Level Albuquerque Center
Thu 12:31:55 PM 35.0697 -109.7703 271° West 220 253 21,000  Level Albuquerque Center
Thu 12:32:56 PM 35.0694 -109.8536 270° West 220 253 21,000  Level Albuquerque Center
Thu 12:34:00 PM 35.0700 -109.9256 271° West 220 253 21,000  Level Albuquerque Center
Thu 12:35:02 PM 35.0686 -110.0086 269° West 220 253 21,000  Level Albuquerque Center
Thu 12:36:03 PM 35.0686 -110.0803 270° West 220 253 21,000  Level Albuquerque Center
Thu 12:37:06 PM 35.0697 -110.1667 271° West 225 259 21,000  Level Albuquerque Center
Thu 12:38:07 PM 35.0694 -110.2383 270° West 224 258 21,000  Level Albuquerque Center
Thu 12:39:08 PM 35.0686 -110.3083 269° West 220 253 21,000  Level Albuquerque Center
Thu 12:40:12 PM 35.0678 -110.3911 269° West 218 251 21,000  Level Albuquerque Center
Thu 12:41:13 PM 35.0656 -110.4631 268° West 220 253 21,000  Level Albuquerque Center
Thu 12:42:14 PM 35.0289 -110.5308 237° Southwest 220 253 21,000  Level Albuquerque Center
Thu 12:43:18 PM 34.9969 -110.5869 235° Southwest 212 244 21,000  Level Albuquerque Center
Thu 12:44:18 PM 34.9575 -110.6533 234° Southwest 214 246 21,000  Level Albuquerque Center
Thu 12:45:22 PM 34.9236 -110.7097 234° Southwest 216 249 21,000  Level Albuquerque Center
Thu 12:46:24 PM 34.8897 -110.7658 234° Southwest 217 250 21,000  Level Albuquerque Center
Thu 12:47:25 PM 34.8483 -110.8369 235° Southwest 216 249 21,000  Level Albuquerque Center
Thu 12:48:27 PM 34.8136 -110.8958 234° Southwest 215 247 21,000 -240 Level Albuquerque Center
Thu 12:49:30 PM 34.7794 -110.9583 236° Southwest 221 254 20,500 -528 Descending Albuquerque Center
Thu 12:50:32 PM 34.7394 -111.0225 233° Southwest 233 268 19,900 -484 Descending Albuquerque Center
Thu 12:51:34 PM 34.7017 -111.0864 234° Southwest 235 270 19,500 -390 Descending Albuquerque Center
Thu 12:52:35 PM 34.6647 -111.1478 234° Southwest 229 264 19,100 -624 Descending Albuquerque Center
Thu 12:53:39 PM 34.6181 -111.2267 234° Southwest 237 273 18,200 -629 Descending Albuquerque Center
Thu 12:54:39 PM 34.5800 -111.2922 235° Southwest 239 275 17,800 -590 Descending Albuquerque Center
Thu 12:55:41 PM 34.5408 -111.3564 233° Southwest 238 274 17,000 -960 Descending Albuquerque Center
Thu 12:56:44 PM 34.5031 -111.4211 235° Southwest 236 272 15,800 -968 Descending Albuquerque Center
Thu 12:57:45 PM 34.4642 -111.4856 234° Southwest 236 272 15,000 -829 Descending Albuquerque Center
Thu 12:58:47 PM 34.4242 -111.5506 233° Southwest 239 275 14,100 -816 Descending Albuquerque Center
Thu 12:59:50 PM 34.3778 -111.6294 235° Southwest 241 277 13,300 -677 Descending Albuquerque Center
Thu 01:00:51 PM 34.3397 -111.6922 234° Southwest 235 270 12,700 -629 Descending Albuquerque Center
Thu 01:01:54 PM 34.3014 -111.7558 234° Southwest 235 270 12,000 -672 Descending Albuquerque Center
Thu 01:02:56 PM 34.2628 -111.8194 234° Southwest 236 272 11,300 -480 Descending Albuquerque Center
Thu 01:03:59 PM 34.2247 -111.8811 233° Southwest 233 268 11,000 -288 Descending Albuquerque Center
Thu 01:05:01 PM 34.1664 -111.9231 211° Southwest 232 267 10,700 -492 Descending Albuquerque Center
Thu 01:06:01 PM 34.1028 -111.9289 184° South 231 266 10,000 -829 Descending Albuquerque Center
Thu 01:07:04 PM 34.0367 -111.9333 183° South 240 276 9,000 -871 Descending Albuquerque Center
Thu 01:08:05 PM 33.9739 -111.9456 189° South 234 269 8,200 -816 Descending Albuquerque Center
Thu 01:09:09 PM 33.9300 -112.0017 227° Southwest 231 266 7,300 -927 Descending Albuquerque Center
Thu 01:10:08 PM 33.8794 -112.0703 228° Southwest 231 266 6,300 -927 Descending Albuquerque Center
Thu 01:11:12 PM 33.8375 -112.1289 229° Southwest 231 266 5,400 -757 Descending Albuquerque Center
Thu 01:11:51 PM 33.8081 -112.1733 231° Southwest 227 261 5,000 -393 Descending Albuquerque Center
Thu 01:12:13 PM 33.7981 -112.1867 228° Southwest 225 259 5,000 -141 Level Albuquerque Center
Thu 01:13:16 PM 33.7608 -112.2292 224° Southwest 199 229 4,800 -290 Descending Albuquerque Center
Thu 01:14:17 PM 33.7086 -112.2325 183° South 187 215 4,400 -532 Descending Albuquerque Center
Thu 01:15:20 PM 33.6539 -112.2422 188° South 197 227 3,700 -684 Descending Albuquerque Center
Thu 01:15:36 PM 33.6269 -112.2478 190° South 190 219 3,500 -387 Descending Albuquerque Center
Thu 01:16:22 PM 33.5928 -112.2447 176° South 182 209 3,300 -393 Descending Albuquerque Center
Thu 01:16:37 PM 33.5803 -112.2494 197° South 153 176 3,100 -553 Descending Albuquerque Center
Thu 01:17:38 PM 33.5428 -112.2667 201° Southwest 138 159 2,600 -440 Descending Albuquerque Center
Thu 01:18:26 PM 33.5186 -112.2750 196° South 139 160 2,300 -455 Descending Albuquerque Center
Thu 01:18:44 PM 33.5031 -112.2819 200° South 131 151 2,100 -778 Descending Albuquerque Center
Thu 01:19:20 PM 33.4933 -112.2997 237° Southwest 133 153 1,600 -571 Descending Albuquerque Center
Thu 01:19:26 PM 33.4947 -112.2975 53° Northeast 139 160 1,700 -484 Climbing Albuquerque Center
Thu 01:20:22 PM 33.5208 -112.2978 359° North 114 131 1,100 -581 Descending Albuquerque Center
Thu 01:20:28 PM 33.5222 -112.2961 45° Northeast 126 145 1,100  Level Albuquerque Center
Thu 01:22:00 PM 33.5269 -112.2951 North  Level Estimated
Thu 01:29:00 PM 33.5269 -112.2951 North  Level Estimated
Thu 01:30:00 PM 33.5269 -112.2951 North  Level Estimated
Thu 01:31:00 PM 33.5269 -112.2951 North  Level Estimated
Thu 01:32:00 PM 33.5269 -112.2951 North  Level Estimated
Thu 01:33:00 PM 33.5269 -112.2951 North  Level Estimated
Thu 01:34:00 PM 33.5269 -112.2951 North  Level Estimated

Login

Don't have an account? Register now (free) for customized features, flight alerts, and more!